createdAt,value
2023-02-05T00:00:02.981Z,0.98
2023-02-05T00:02:29.432Z,0.51
2023-02-05T00:04:56.144Z,0.76
2023-02-05T00:07:23.909Z,0.66
2023-02-05T00:09:50.339Z,0.62
2023-02-05T00:12:16.800Z,0.62
2023-02-05T00:14:43.333Z,1.04
2023-02-05T00:17:09.937Z,0.76
2023-02-05T00:19:36.590Z,0.98
2023-02-05T00:22:03.054Z,0.46
2023-02-05T00:24:29.454Z,0.86
2023-02-05T00:26:56.102Z,0.45
2023-02-05T00:29:22.679Z,1.08
2023-02-05T00:31:49.668Z,0.95
2023-02-05T00:34:16.991Z,0.29
2023-02-05T00:36:43.475Z,0.08
2023-02-05T00:39:11.440Z,0.86
2023-02-05T00:41:38.615Z,1.10
2023-02-05T00:44:05.457Z,0.94
2023-02-05T00:46:32.137Z,0.77
2023-02-05T00:48:58.722Z,0.70
2023-02-05T00:51:25.257Z,0.65
2023-02-05T00:53:51.806Z,1.04
2023-02-05T00:56:18.437Z,0.88
2023-02-05T00:58:49.981Z,-0.02
2023-02-05T01:01:17.268Z,0.85
2023-02-05T01:03:44.081Z,0.43
2023-02-05T01:06:11.079Z,-0.14
2023-02-05T01:08:37.631Z,-0.22
2023-02-05T01:11:07.553Z,0.56
2023-02-05T01:13:34.236Z,0.52
2023-02-05T01:16:00.764Z,0.91
2023-02-05T01:18:27.218Z,0.55
2023-02-05T01:20:53.841Z,-0.06
2023-02-05T01:23:20.298Z,0.47
2023-02-05T01:25:46.777Z,0.61
2023-02-05T01:28:14.110Z,0.68
2023-02-05T01:30:43.587Z,0.96
2023-02-05T01:33:10.222Z,0.96
2023-02-05T01:35:36.928Z,0.60
2023-02-05T01:38:03.459Z,0.85
2023-02-05T01:40:30.033Z,0.87
2023-02-05T01:42:56.511Z,0.51
2023-02-05T01:45:22.972Z,1.06
2023-02-05T01:47:51.685Z,0.35
2023-02-05T01:50:32.149Z,0.30
2023-02-05T01:53:02.510Z,1.09
2023-02-05T01:55:30.923Z,0.64
2023-02-05T01:58:00.623Z,-0.07
2023-02-05T02:00:27.104Z,-0.21
2023-02-05T02:02:53.843Z,0.98
2023-02-05T02:05:20.619Z,1.16
2023-02-05T02:07:47.268Z,1.04
2023-02-05T02:10:17.590Z,0.96
2023-02-05T02:12:47.448Z,1.00
2023-02-05T02:15:21.044Z,1.27
2023-02-05T02:17:53.765Z,1.08
2023-02-05T02:20:23.437Z,1.09
2023-02-05T02:22:56.247Z,1.35
2023-02-05T02:25:40.938Z,1.03
2023-02-05T02:28:17.976Z,1.08
2023-02-05T02:30:56.693Z,1.42
2023-02-05T02:33:38.593Z,1.42
2023-02-05T02:36:19.305Z,1.41
2023-02-05T02:39:12.480Z,1.27
2023-02-05T02:41:50.533Z,1.10
2023-02-05T02:44:37.365Z,0.94
2023-02-05T02:47:11.096Z,1.39
2023-02-05T02:49:44.014Z,1.38
2023-02-05T02:52:15.341Z,1.35
2023-02-05T02:54:46.155Z,0.99
2023-02-05T02:57:15.735Z,1.34
2023-02-05T02:59:45.099Z,0.51
2023-02-05T03:02:15.887Z,1.15
2023-02-05T03:05:03.798Z,1.30
2023-02-05T03:07:38.810Z,0.97
2023-02-05T03:10:11.179Z,1.30
2023-02-05T03:12:37.670Z,1.29
2023-02-05T03:18:01.903Z,1.28
2023-02-05T03:20:32.913Z,0.89
2023-02-05T03:22:59.700Z,0.79
2023-02-05T03:25:28.680Z,0.23
2023-02-05T03:27:56.592Z,1.05
2023-02-05T03:30:29.475Z,0.20
2023-02-05T03:33:12.538Z,1.13
2023-02-05T03:35:52.753Z,1.14
2023-02-05T03:38:29.402Z,1.36
2023-02-05T03:41:08.568Z,1.31
2023-02-05T03:44:05.452Z,1.22
2023-02-05T03:46:48.114Z,1.08
2023-02-05T03:49:29.604Z,1.31
2023-02-05T03:52:27.153Z,1.37
2023-02-05T03:55:05.320Z,1.38
2023-02-05T03:57:56.509Z,1.30
2023-02-05T04:00:25.380Z,0.99
2023-02-05T04:02:51.837Z,1.52
2023-02-05T04:05:22.857Z,1.41
2023-02-05T04:07:50.349Z,1.61
2023-02-05T04:10:18.036Z,0.31
2023-02-05T04:12:45.085Z,1.73
2023-02-05T04:15:12.050Z,1.54
2023-02-05T04:17:39.258Z,1.68
2023-02-05T04:20:06.933Z,1.63
2023-02-05T04:22:33.735Z,1.72
2023-02-05T04:25:00.239Z,1.77
2023-02-05T04:27:26.698Z,1.67
2023-02-05T04:29:53.153Z,1.56
2023-02-05T04:32:19.622Z,1.80
2023-02-05T04:34:46.459Z,1.68
2023-02-05T04:37:13.055Z,1.95
2023-02-05T04:39:39.508Z,1.62
2023-02-05T04:42:06.137Z,1.84
2023-02-05T04:44:32.583Z,1.88
2023-02-05T04:46:59.640Z,2.06
2023-02-05T04:49:26.270Z,1.97
2023-02-05T04:51:52.729Z,1.27
2023-02-05T04:54:19.294Z,1.95
2023-02-05T04:56:46.877Z,1.64
2023-02-05T04:59:13.462Z,1.98
2023-02-05T05:01:40.627Z,1.21
2023-02-05T05:04:07.209Z,1.92
2023-02-05T05:06:33.705Z,1.97
2023-02-05T05:09:00.296Z,2.04
2023-02-05T05:11:26.845Z,1.62
2023-02-05T05:13:53.366Z,2.08
2023-02-05T05:16:19.944Z,1.92
2023-02-05T05:18:46.648Z,1.00
2023-02-05T05:21:13.192Z,2.22
2023-02-05T05:23:39.643Z,1.73
2023-02-05T05:26:12.034Z,2.25
2023-02-05T05:28:38.917Z,2.01
2023-02-05T05:31:17.357Z,2.24
2023-02-05T05:33:43.869Z,1.88
2023-02-05T05:36:10.517Z,2.11
2023-02-05T05:38:37.169Z,1.54
2023-02-05T05:41:22.762Z,2.27
2023-02-05T05:43:49.850Z,1.79
2023-02-05T05:46:23.029Z,2.30
2023-02-05T05:48:55.370Z,2.32
2023-02-05T05:51:23.038Z,2.19
2023-02-05T05:53:50.071Z,1.94
2023-02-05T05:56:17.626Z,2.03
2023-02-05T05:58:45.091Z,1.81
2023-02-05T06:01:13.030Z,2.19
2023-02-05T06:03:39.493Z,1.87
2023-02-05T06:06:07.731Z,2.16
2023-02-05T06:08:35.244Z,2.28
2023-02-05T06:11:01.800Z,2.38
2023-02-05T06:13:28.276Z,2.00
2023-02-05T06:15:55.042Z,2.14
2023-02-05T06:18:23.722Z,2.22
2023-02-05T06:20:50.538Z,2.34
2023-02-05T06:23:17.079Z,2.19
2023-02-05T06:25:43.518Z,2.29
2023-02-05T06:28:10.172Z,1.08
2023-02-05T06:30:37.103Z,1.81
2023-02-05T06:33:03.912Z,1.25
2023-02-05T06:35:30.394Z,1.27
2023-02-05T06:37:56.982Z,2.05
2023-02-05T06:40:25.980Z,2.09
2023-02-05T06:42:53.562Z,2.17
2023-02-05T06:45:20.310Z,0.61
2023-02-05T06:47:47.188Z,1.82
2023-02-05T06:50:13.864Z,2.02
2023-02-05T06:52:40.372Z,2.01
2023-02-05T06:55:07.377Z,1.66
2023-02-05T06:57:33.884Z,2.05
2023-02-05T07:00:00.673Z,2.14
2023-02-05T07:02:27.550Z,2.00
2023-02-05T07:04:54.094Z,1.60
2023-02-05T07:07:20.531Z,1.95
2023-02-05T07:09:47.034Z,1.82
2023-02-05T07:12:13.600Z,1.99
2023-02-05T07:14:41.536Z,1.77
2023-02-05T07:17:08.891Z,1.92
2023-02-05T07:19:36.961Z,2.09
2023-02-05T07:22:04.850Z,1.63
2023-02-05T07:24:31.663Z,1.79
2023-02-05T07:26:58.350Z,1.93
2023-02-05T07:29:25.242Z,2.03
2023-02-05T07:31:52.340Z,1.87
2023-02-05T07:34:19.403Z,1.89
2023-02-05T07:36:45.834Z,1.77
2023-02-05T07:39:12.264Z,1.12
2023-02-05T07:41:38.707Z,1.81
2023-02-05T07:44:05.254Z,1.96
2023-02-05T07:46:31.747Z,1.91
2023-02-05T07:48:58.305Z,1.72
2023-02-05T07:51:26.391Z,2.13
2023-02-05T07:53:53.361Z,2.15
2023-02-05T07:56:21.861Z,1.79
2023-02-05T07:58:49.554Z,1.13
2023-02-05T08:01:16.177Z,1.57
2023-02-05T08:03:43.365Z,2.18
2023-02-05T08:06:14.652Z,1.32
2023-02-05T08:08:44.569Z,1.46
2023-02-05T08:11:15.044Z,2.32
2023-02-05T08:13:42.575Z,1.96
2023-02-05T08:16:09.311Z,2.42
2023-02-05T08:18:35.840Z,1.69
2023-02-05T08:21:02.447Z,2.34
2023-02-05T08:23:29.011Z,1.87
2023-02-05T08:25:56.698Z,1.97
2023-02-05T08:28:25.082Z,2.65
2023-02-05T08:30:51.807Z,2.26
2023-02-05T08:33:18.419Z,2.70
2023-02-05T08:35:45.538Z,2.85
2023-02-05T08:38:11.960Z,3.07
2023-02-05T08:40:38.494Z,2.92
2023-02-05T08:43:05.038Z,2.87
2023-02-05T08:45:31.782Z,3.11
2023-02-05T08:47:58.344Z,2.88
2023-02-05T08:50:25.699Z,3.41
2023-02-05T08:52:52.159Z,2.87
2023-02-05T08:55:18.675Z,3.25
2023-02-05T08:57:45.696Z,3.60
2023-02-05T09:00:13.027Z,2.69
2023-02-05T09:02:42.420Z,3.22
2023-02-05T09:05:09.862Z,3.54
2023-02-05T09:07:38.634Z,3.27
2023-02-05T09:10:07.407Z,3.66
2023-02-05T09:12:33.942Z,3.47
2023-02-05T09:15:00.351Z,3.60
2023-02-05T09:17:27.360Z,3.91
2023-02-05T09:19:53.850Z,3.77
2023-02-05T09:22:20.929Z,3.67
2023-02-05T09:24:47.547Z,3.67
2023-02-05T09:27:14.966Z,3.97
2023-02-05T09:29:41.874Z,3.81
2023-02-05T09:32:08.617Z,3.87
2023-02-05T09:34:35.193Z,4.19
2023-02-05T09:37:01.611Z,4.07
2023-02-05T09:40:02.251Z,4.27
2023-02-05T09:42:56.403Z,4.32
2023-02-05T09:45:22.805Z,4.34
2023-02-05T09:48:06.244Z,3.73
2023-02-05T09:50:33.872Z,4.06
2023-02-05T09:53:05.931Z,4.41
2023-02-05T09:55:46.933Z,4.43
2023-02-05T09:58:23.348Z,4.20
2023-02-05T10:01:12.666Z,4.23
2023-02-05T10:03:54.590Z,4.24
2023-02-05T10:06:52.766Z,4.53
2023-02-05T10:09:41.206Z,4.51
2023-02-05T10:12:22.968Z,4.54
2023-02-05T10:15:01.428Z,4.56
2023-02-05T10:17:51.972Z,4.62
2023-02-05T10:20:45.780Z,4.60
2023-02-05T10:23:16.733Z,4.70
2023-02-05T10:26:08.966Z,4.76
2023-02-05T10:29:08.538Z,4.76
2023-02-05T10:31:57.974Z,4.26
2023-02-05T10:34:57.331Z,4.85
2023-02-05T10:37:57.840Z,4.94
2023-02-05T10:40:31.220Z,4.34
2023-02-05T10:43:05.181Z,4.95
2023-02-05T10:45:32.072Z,5.00
2023-02-05T10:48:04.438Z,5.06
2023-02-05T10:50:47.690Z,4.70
2023-02-05T10:53:19.180Z,5.21
2023-02-05T10:55:45.696Z,5.24
2023-02-05T10:58:48.091Z,5.41
2023-02-05T11:01:19.451Z,5.48
2023-02-05T11:03:52.549Z,5.42
2023-02-05T11:06:20.835Z,5.60
2023-02-05T11:08:47.835Z,5.38
2023-02-05T11:11:34.613Z,5.75
2023-02-05T11:14:05.535Z,5.77
2023-02-05T11:16:45.749Z,5.70
2023-02-05T11:19:21.307Z,5.96
2023-02-05T11:21:55.244Z,5.89
2023-02-05T11:24:26.127Z,5.86
2023-02-05T11:27:30.764Z,5.44
2023-02-05T11:30:17.834Z,5.65
2023-02-05T11:32:45.657Z,5.44
2023-02-05T11:35:23.685Z,5.56
2023-02-05T11:38:17.614Z,5.82
2023-02-05T11:40:52.289Z,5.55
2023-02-05T11:43:27.282Z,5.46
2023-02-05T11:45:56.689Z,5.72
2023-02-05T11:48:34.255Z,5.65
2023-02-05T11:51:03.452Z,5.89
2023-02-05T11:53:32.962Z,5.73
2023-02-05T11:56:04.975Z,5.75
2023-02-05T11:58:37.020Z,5.84
2023-02-05T12:01:29.154Z,6.12
2023-02-05T12:04:12.461Z,5.72
2023-02-05T12:06:57.554Z,6.30
2023-02-05T12:09:27.279Z,5.38
2023-02-05T12:12:21.414Z,6.41
2023-02-05T12:15:06.800Z,6.39
2023-02-05T12:17:40.171Z,6.32
2023-02-05T12:20:23.370Z,6.21
2023-02-05T12:24:00.652Z,6.42
2023-02-05T12:26:33.256Z,6.20
2023-02-05T12:29:25.956Z,6.28
2023-02-05T12:32:20.351Z,6.27
2023-02-05T12:35:11.300Z,6.24
2023-02-05T12:37:43.955Z,5.97
2023-02-05T12:40:41.673Z,6.21
2023-02-05T12:43:27.042Z,5.99
2023-02-05T12:46:27.688Z,6.35
2023-02-05T12:49:01.100Z,6.42
2023-02-05T12:51:46.270Z,6.56
2023-02-05T12:54:28.046Z,6.58
2023-02-05T12:57:05.289Z,6.45
2023-02-05T12:59:48.485Z,6.50
2023-02-05T13:02:34.378Z,6.88
2023-02-05T13:05:19.249Z,6.71
2023-02-05T13:07:52.953Z,6.64
2023-02-05T13:10:28.304Z,6.97
2023-02-05T13:16:05.901Z,6.43
2023-02-05T13:18:41.450Z,7.03
2023-02-05T13:21:33.892Z,7.04
2023-02-05T13:24:40.337Z,7.11
2023-02-05T13:27:44.506Z,7.11
2023-02-05T13:30:19.568Z,7.13
2023-02-05T13:32:51.735Z,7.10
2023-02-05T13:35:20.090Z,7.11
2023-02-05T13:37:58.580Z,7.15
2023-02-05T13:40:43.843Z,7.18
2023-02-05T13:43:18.191Z,7.17
2023-02-05T13:46:07.404Z,7.17
2023-02-05T13:48:58.291Z,7.17
2023-02-05T13:51:33.766Z,7.14
2023-02-05T13:54:37.365Z,7.13
2023-02-05T13:57:38.402Z,7.10
2023-02-05T14:00:08.821Z,7.03
2023-02-05T14:02:44.986Z,7.02
2023-02-05T14:05:13.637Z,6.97
2023-02-05T14:07:51.553Z,7.00
2023-02-05T14:10:30.262Z,7.00
2023-02-05T14:16:24.263Z,6.97
2023-02-05T14:18:59.815Z,6.91
2023-02-05T14:21:35.138Z,6.89
2023-02-05T14:24:22.879Z,6.85
2023-02-05T14:26:52.324Z,6.82
2023-02-05T14:29:49.571Z,6.82
2023-02-05T14:32:28.130Z,6.78
2023-02-05T14:35:03.614Z,6.72
2023-02-05T14:37:35.193Z,6.68
2023-02-05T14:40:14.516Z,6.69
2023-02-05T14:42:42.220Z,6.68
2023-02-05T14:45:15.912Z,6.56
2023-02-05T14:47:47.146Z,6.41
2023-02-05T14:50:26.496Z,6.69
2023-02-05T14:52:57.727Z,6.60
2023-02-05T14:55:30.145Z,6.62
2023-02-05T14:58:04.107Z,6.53
2023-02-05T15:00:32.223Z,6.43
2023-02-05T15:03:04.469Z,6.40
2023-02-05T15:05:40.087Z,6.32
2023-02-05T15:08:28.356Z,6.28
2023-02-05T15:11:22.977Z,6.21
2023-02-05T15:14:20.962Z,6.16
2023-02-05T15:17:05.908Z,6.06
2023-02-05T15:19:46.274Z,5.98
2023-02-05T15:22:26.863Z,5.99
2023-02-05T15:24:54.614Z,5.95
2023-02-05T15:27:24.869Z,5.86
2023-02-05T15:29:57.162Z,6.00
2023-02-05T15:32:32.786Z,5.88
2023-02-05T15:35:12.812Z,5.86
2023-02-05T15:37:48.785Z,5.84
2023-02-05T15:40:30.960Z,5.83
2023-02-05T15:43:22.270Z,5.79
2023-02-05T15:45:52.005Z,5.57
2023-02-05T15:48:31.009Z,5.65
2023-02-05T15:51:02.228Z,5.59
2023-02-05T15:53:34.516Z,5.57
2023-02-05T15:56:12.681Z,5.52
2023-02-05T15:58:45.724Z,5.45
2023-02-05T16:01:22.501Z,5.53
2023-02-05T16:03:49.185Z,5.49
2023-02-05T16:06:19.832Z,5.42
2023-02-05T16:08:48.129Z,5.39
2023-02-05T16:11:30.476Z,5.28
2023-02-05T16:14:24.192Z,5.48
2023-02-05T16:17:21.461Z,5.38
2023-02-05T16:19:50.608Z,5.39
2023-02-05T16:22:33.342Z,5.36
2023-02-05T16:25:06.584Z,5.35
2023-02-05T16:27:43.095Z,5.35
2023-02-05T16:30:43.582Z,5.34
2023-02-05T16:33:26.827Z,5.17
2023-02-05T16:35:54.097Z,5.24
2023-02-05T16:38:23.198Z,5.20
2023-02-05T16:40:53.541Z,5.19
2023-02-05T16:43:39.094Z,5.04
2023-02-05T16:46:20.740Z,5.14
2023-02-05T16:48:47.552Z,5.12
2023-02-05T16:51:31.961Z,5.01
2023-02-05T16:54:00.740Z,5.06
2023-02-05T16:56:32.368Z,5.08
2023-02-05T16:59:01.331Z,5.07
2023-02-05T17:01:36.698Z,5.07
2023-02-05T17:04:03.356Z,5.04
2023-02-05T17:06:35.908Z,5.05
2023-02-05T17:09:04.962Z,5.04
2023-02-05T17:11:34.782Z,5.02
2023-02-05T17:14:28.588Z,5.04
2023-02-05T17:17:03.287Z,5.03
2023-02-05T17:19:32.084Z,5.00
2023-02-05T17:22:13.813Z,5.04
2023-02-05T17:24:41.752Z,4.88
2023-02-05T17:27:38.163Z,5.05
2023-02-05T17:30:10.412Z,5.03
2023-02-05T17:32:37.523Z,4.93
2023-02-05T17:35:13.604Z,5.01
2023-02-05T17:37:40.052Z,5.00
2023-02-05T17:40:06.997Z,4.98
2023-02-05T17:42:33.422Z,4.97
2023-02-05T17:44:59.827Z,4.76
2023-02-05T17:47:26.292Z,4.95
2023-02-05T17:49:52.775Z,4.88
2023-02-05T17:52:19.323Z,4.87
2023-02-05T17:54:46.229Z,4.90
2023-02-05T17:57:19.224Z,4.91
2023-02-05T17:59:46.209Z,4.88
2023-02-05T18:02:13.418Z,4.83
2023-02-05T18:04:41.246Z,4.84
2023-02-05T18:07:25.260Z,4.84
2023-02-05T18:09:51.666Z,4.70
2023-02-05T18:12:18.213Z,4.80
2023-02-05T18:14:44.737Z,4.80
2023-02-05T18:17:11.261Z,4.79
2023-02-05T18:19:37.730Z,4.79
2023-02-05T18:22:05.492Z,4.79
2023-02-05T18:24:32.920Z,4.79
2023-02-05T18:26:59.398Z,4.76
2023-02-05T18:29:27.686Z,4.76
2023-02-05T18:31:54.067Z,4.77
2023-02-05T18:34:20.513Z,4.75
2023-02-05T18:36:46.931Z,4.62
2023-02-05T18:39:13.324Z,4.74
2023-02-05T18:41:40.948Z,4.73
2023-02-05T18:44:07.489Z,4.65
2023-02-05T18:46:34.879Z,4.69
2023-02-05T18:49:01.668Z,4.32
2023-02-05T18:51:28.319Z,4.60
2023-02-05T18:53:54.902Z,4.61
2023-02-05T18:56:24.165Z,4.55
2023-02-05T18:58:59.202Z,4.54
2023-02-05T19:01:26.575Z,4.48
2023-02-05T19:03:54.432Z,4.44
2023-02-05T19:06:21.728Z,4.41
2023-02-05T19:08:49.366Z,4.23
2023-02-05T19:11:20.293Z,4.37
2023-02-05T19:13:47.595Z,4.36
2023-02-05T19:16:16.240Z,4.35
2023-02-05T19:18:44.851Z,4.09
2023-02-05T19:21:19.671Z,4.35
2023-02-05T19:23:49.847Z,4.34
2023-02-05T19:26:19.298Z,4.34
2023-02-05T19:28:51.164Z,4.31
2023-02-05T19:31:17.765Z,4.22
2023-02-05T19:33:45.512Z,4.34
2023-02-05T19:36:12.000Z,4.21
2023-02-05T19:38:40.103Z,4.37
2023-02-05T19:41:14.857Z,4.37
2023-02-05T19:43:50.575Z,4.38
2023-02-05T19:46:18.679Z,4.39
2023-02-05T19:48:45.535Z,4.35
2023-02-05T19:51:13.624Z,4.34
2023-02-05T19:53:43.221Z,4.11
2023-02-05T19:56:15.360Z,4.43
2023-02-05T19:58:44.495Z,4.42
2023-02-05T20:01:19.246Z,4.12
2023-02-05T20:03:46.406Z,4.34
2023-02-05T20:06:15.801Z,4.33
2023-02-05T20:08:43.033Z,4.29
2023-02-05T20:11:09.558Z,4.21
2023-02-05T20:13:37.251Z,4.17
2023-02-05T20:16:06.441Z,4.11
2023-02-05T20:18:33.041Z,3.86
2023-02-05T20:20:59.550Z,4.00
2023-02-05T20:23:26.094Z,3.91
2023-02-05T20:26:01.110Z,3.94
2023-02-05T20:28:27.676Z,3.83
2023-02-05T20:31:12.602Z,3.86
2023-02-05T20:33:39.257Z,3.84
2023-02-05T20:36:07.801Z,3.84
2023-02-05T20:38:34.537Z,3.76
2023-02-05T20:41:10.328Z,3.68
2023-02-05T20:43:36.780Z,3.65
2023-02-05T20:46:04.268Z,3.59
2023-02-05T20:48:30.867Z,3.41
2023-02-05T20:51:07.630Z,3.44
2023-02-05T20:53:34.164Z,3.21
2023-02-05T20:56:05.589Z,3.29
2023-02-05T20:58:32.765Z,2.95
2023-02-05T21:01:26.452Z,3.13
2023-02-05T21:03:55.442Z,3.01
2023-02-05T21:06:22.953Z,2.92
2023-02-05T21:08:51.749Z,2.90
2023-02-05T21:11:19.598Z,2.86
2023-02-05T21:13:47.677Z,2.79
2023-02-05T21:16:16.282Z,2.60
2023-02-05T21:18:46.790Z,2.56
2023-02-05T21:21:17.065Z,2.26
2023-02-05T21:23:45.908Z,2.49
2023-02-05T21:26:24.714Z,2.35
2023-02-05T21:28:59.336Z,2.26
2023-02-05T21:31:33.622Z,2.21
2023-02-05T21:34:05.124Z,2.11
2023-02-05T21:36:31.827Z,2.04
2023-02-05T21:38:58.356Z,1.97
2023-02-05T21:41:25.383Z,1.93
2023-02-05T21:43:54.425Z,1.86
2023-02-05T21:46:22.451Z,1.78
2023-02-05T21:48:50.738Z,1.69
2023-02-05T21:51:18.767Z,1.65
2023-02-05T21:53:45.664Z,1.59
2023-02-05T21:56:14.647Z,1.52
2023-02-05T21:58:41.541Z,1.28
2023-02-05T22:01:12.737Z,1.09
2023-02-05T22:03:40.323Z,1.43
2023-02-05T22:06:07.819Z,1.36
2023-02-05T22:08:35.781Z,1.34
2023-02-05T22:11:04.001Z,1.30
2023-02-05T22:13:32.759Z,1.21
2023-02-05T22:16:07.986Z,1.22
2023-02-05T22:18:35.519Z,1.20
2023-02-05T22:21:22.504Z,1.16
2023-02-05T22:23:50.577Z,1.16
2023-02-05T22:26:18.777Z,1.15
2023-02-05T22:28:46.479Z,1.13
2023-02-05T22:31:16.066Z,1.13
2023-02-05T22:33:46.872Z,1.13
2023-02-05T22:36:16.006Z,1.13
2023-02-05T22:38:42.835Z,1.00
2023-02-05T22:41:14.456Z,1.10
2023-02-05T22:43:41.068Z,0.78
2023-02-05T22:46:09.757Z,1.01
2023-02-05T22:48:38.260Z,0.73
2023-02-05T22:51:07.550Z,0.94
2023-02-05T22:53:34.573Z,0.98
2023-02-05T22:56:05.387Z,0.97
2023-02-05T22:58:32.671Z,0.94
2023-02-05T23:00:59.285Z,0.90
2023-02-05T23:03:25.782Z,0.92
2023-02-05T23:05:52.911Z,0.92
2023-02-05T23:08:19.321Z,0.58
2023-02-05T23:10:45.983Z,0.89
2023-02-05T23:13:12.448Z,0.90
2023-02-05T23:15:38.925Z,0.85
2023-02-05T23:18:05.499Z,0.78
2023-02-05T23:20:32.401Z,0.87
2023-02-05T23:22:58.811Z,0.86
2023-02-05T23:25:25.506Z,0.81
2023-02-05T23:27:52.073Z,0.82
2023-02-05T23:30:18.696Z,0.80
2023-02-05T23:32:45.308Z,0.80
2023-02-05T23:35:11.733Z,0.77
2023-02-05T23:37:38.140Z,0.77
2023-02-05T23:40:04.928Z,0.80
2023-02-05T23:42:31.327Z,0.45
2023-02-05T23:44:57.720Z,0.34
2023-02-05T23:47:24.125Z,0.85
2023-02-05T23:49:50.574Z,0.92
2023-02-05T23:52:16.957Z,0.99
2023-02-05T23:54:43.450Z,1.04
2023-02-05T23:57:09.929Z,1.10
2023-02-05T23:59:36.429Z,1.13
